Time;durP1;ratioP1;P1;durP2;ratioP2;P2;SDS_P1;SDS_P2;PMS_P1;PMS_P2;Temp;Humidity;BMP_temperature;BMP_pressure;BME280_temperature;BME280_humidity;BME280_pressure;Samples;Min_cycle;Max_cycle;Signal;HPM_P1;HPM_P2
2022/06/26 00:02:28;;;;;;;0.90;0.90;;;17.00;99.90;;;;;;5181862;28;20047;-58
2022/06/26 00:05:00;;;;;;;0.85;0.85;;;17.10;99.90;;;;;;5185575;28;20045;-61
2022/06/26 00:07:41;;;;;;;1.80;1.20;;;17.10;99.90;;;;;;5181350;28;20626;-59
2022/06/26 00:10:13;;;;;;;1.30;0.85;;;17.00;99.90;;;;;;5180283;28;20052;-59
2022/06/26 00:12:49;;;;;;;1.30;1.20;;;17.00;99.90;;;;;;5181748;28;20034;-59
2022/06/26 00:15:21;;;;;;;1.50;1.40;;;17.00;99.90;;;;;;5179229;28;20437;-61
2022/06/26 00:17:56;;;;;;;1.35;1.25;;;17.00;99.90;;;;;;5164041;28;20050;-59
2022/06/26 00:20:30;;;;;;;;;;;16.90;99.90;;;;;;5193083;28;20333;-62
2022/06/26 00:23:04;;;;;;;1.23;1.10;;;16.90;99.90;;;;;;5198746;28;20101;-60
2022/06/26 00:25:38;;;;;;;;;;;17.00;99.90;;;;;;5200129;28;20033;-60
2022/06/26 00:28:10;;;;;;;1.00;1.00;;;17.00;99.90;;;;;;5200839;28;19909;-60
2022/06/26 00:30:47;;;;;;;1.15;1.05;;;16.90;99.90;;;;;;5199530;28;20041;-60
2022/06/26 00:33:20;;;;;;;1.20;1.10;;;16.80;99.90;;;;;;5200801;28;20046;-60
2022/06/26 00:35:54;;;;;;;1.08;1.08;;;16.80;99.90;;;;;;5195481;28;20350;-59
2022/06/26 00:38:26;;;;;;;1.45;1.35;;;16.80;99.90;;;;;;5200046;28;20069;-60
2022/06/26 00:41:00;;;;;;;1.52;1.10;;;16.80;99.90;;;;;;5202360;28;20025;-59
2022/06/26 00:43:32;;;;;;;1.15;1.05;;;16.70;99.90;;;;;;5217224;28;20021;-60
2022/06/26 00:46:11;;;;;;;1.10;1.10;;;16.70;99.90;;;;;;5210672;28;20027;-60
2022/06/26 00:48:42;;;;;;;0.90;0.90;;;16.70;99.90;;;;;;5183238;28;20052;-59
2022/06/26 00:51:14;;;;;;;1.27;1.17;;;16.70;99.90;;;;;;5201838;28;20033;-59
2022/06/26 00:53:48;;;;;;;1.00;1.00;;;16.70;99.90;;;;;;5200886;28;20038;-61
2022/06/26 00:56:20;;;;;;;1.30;1.20;;;16.70;99.90;;;;;;5216891;28;20044;-60
2022/06/26 00:58:51;;;;;;;1.35;1.25;;;16.70;99.90;;;;;;5208689;28;20033;-61
2022/06/26 01:01:25;;;;;;;1.05;0.90;;;16.70;99.90;;;;;;5201807;28;20205;-59
2022/06/26 01:03:59;;;;;;;1.10;1.00;;;16.70;99.90;;;;;;5204124;28;20043;-61
2022/06/26 01:06:31;;;;;;;1.30;1.20;;;16.70;99.90;;;;;;5195153;28;20045;-62
2022/06/26 01:09:03;;;;;;;0.90;0.90;;;16.70;99.90;;;;;;5199458;28;20029;-64
2022/06/26 01:11:35;;;;;;;1.23;1.13;;;16.70;99.90;;;;;;5176354;28;20338;-60
2022/06/26 01:14:10;;;;;;;1.00;1.00;;;16.70;99.90;;;;;;5198770;28;20033;-60
2022/06/26 01:16:49;;;;;;;1.10;1.10;;;16.70;99.90;;;;;;5184765;28;20033;-61
2022/06/26 01:19:23;;;;;;;1.08;1.08;;;16.70;99.90;;;;;;5200921;28;20021;-62
2022/06/26 01:22:00;;;;;;;1.30;1.20;;;16.80;99.90;;;;;;5183057;28;20036;-59
2022/06/26 01:24:35;;;;;;;1.23;0.88;;;16.80;99.90;;;;;;5181961;28;20051;-60
2022/06/26 01:27:07;;;;;;;1.08;0.95;;;16.80;99.90;;;;;;5182033;28;20298;-62
2022/06/26 01:29:38;;;;;;;3.58;1.00;;;16.80;99.90;;;;;;5198128;28;20033;-62
2022/06/26 01:32:10;;;;;;;0.85;0.85;;;16.80;99.90;;;;;;5184420;28;20225;-61
2022/06/26 01:34:49;;;;;;;0.90;0.90;;;16.80;99.90;;;;;;5197555;28;20047;-61
2022/06/26 01:37:26;;;;;;;1.33;0.93;;;16.80;99.90;;;;;;5197949;28;20522;-60
2022/06/26 01:40:00;;;;;;;1.48;1.38;;;16.80;99.90;;;;;;5197978;28;20309;-63
2022/06/26 01:42:33;;;;;;;1.45;1.35;;;16.70;99.90;;;;;;5201994;28;20128;-60
2022/06/26 01:45:07;;;;;;;0.90;0.90;;;16.80;99.90;;;;;;5200334;28;20222;-60
2022/06/26 01:47:41;;;;;;;0.93;0.90;;;16.80;99.90;;;;;;5198621;28;20216;-61
2022/06/26 01:50:29;;;;;;;1.40;1.30;;;16.80;99.90;;;;;;5197526;28;20448;-60
2022/06/26 01:53:04;;;;;;;1.13;1.13;;;16.90;99.90;;;;;;5204709;28;20048;-60
2022/06/26 01:55:40;;;;;;;0.80;0.80;;;16.80;99.90;;;;;;5199237;28;20337;-61
2022/06/26 01:58:18;;;;;;;1.90;1.10;;;16.90;99.90;;;;;;5199763;28;20456;-60
2022/06/26 02:00:50;;;;;;;1.20;1.20;;;16.80;99.90;;;;;;5197751;28;20326;-61
2022/06/26 02:03:25;;;;;;;1.10;0.93;;;16.90;99.90;;;;;;5199069;28;20030;-61
2022/06/26 02:05:59;;;;;;;;;;;16.90;99.90;;;;;;5191478;28;20033;-62
2022/06/26 02:08:32;;;;;;;1.40;1.30;;;16.80;99.90;;;;;;5200466;28;19935;-61
2022/06/26 02:13:57;;;;;;;0.73;0.73;;;16.80;99.90;;;;;;5199207;28;20033;-61
2022/06/26 02:16:33;;;;;;;1.30;1.20;;;16.70;99.90;;;;;;5204049;28;20032;-59
2022/06/26 02:19:09;;;;;;;0.82;0.82;;;16.70;99.90;;;;;;5198452;28;20040;-60
2022/06/26 02:21:42;;;;;;;1.20;1.00;;;16.70;99.90;;;;;;5199561;28;20055;-61
2022/06/26 02:24:18;;;;;;;1.10;1.00;;;16.60;99.90;;;;;;5200737;28;20234;-60
2022/06/26 02:26:53;;;;;;;1.02;0.90;;;16.50;99.90;;;;;;5199819;28;20041;-61
2022/06/26 02:29:26;;;;;;;;;;;16.50;99.90;;;;;;5180515;28;20038;-59
2022/06/26 02:31:58;;;;;;;0.95;0.88;;;16.40;99.90;;;;;;5202507;28;20099;-60
2022/06/26 02:34:33;;;;;;;0.90;0.90;;;16.50;99.90;;;;;;5200379;28;20052;-61
2022/06/26 02:37:07;;;;;;;0.90;0.90;;;16.50;99.90;;;;;;5198088;28;20026;-60
2022/06/26 02:39:40;;;;;;;1.15;1.13;;;16.40;99.90;;;;;;5189868;28;20025;-61
2022/06/26 02:42:11;;;;;;;0.98;0.98;;;16.40;99.90;;;;;;5198932;28;20226;-61
2022/06/26 02:44:45;;;;;;;1.17;1.08;;;16.30;99.90;;;;;;5198038;28;20122;-62
2022/06/26 02:47:19;;;;;;;1.35;1.08;;;16.20;99.90;;;;;;5196898;28;20036;-60
2022/06/26 02:49:55;;;;;;;0.82;0.82;;;16.20;99.90;;;;;;5202888;28;20060;-62
2022/06/26 02:52:29;;;;;;;0.88;0.88;;;16.20;99.90;;;;;;5197213;28;20368;-60
2022/06/26 02:55:05;;;;;;;1.10;1.10;;;16.20;99.90;;;;;;5204503;28;20029;-62
2022/06/26 02:57:39;;;;;;;1.48;1.38;;;16.20;99.90;;;;;;5201049;28;20047;-62
2022/06/26 03:00:18;;;;;;;1.00;1.00;;;16.30;99.90;;;;;;5217650;28;20066;-60
2022/06/26 03:02:50;;;;;;;1.40;1.30;;;16.40;99.90;;;;;;5204056;28;20307;-61
2022/06/26 03:05:27;;;;;;;1.65;1.20;;;16.40;99.90;;;;;;5186814;28;20042;-61
2022/06/26 03:08:04;;;;;;;1.00;1.00;;;16.40;99.90;;;;;;5178397;28;20025;-60
2022/06/26 03:10:38;;;;;;;2.13;1.30;;;16.50;99.90;;;;;;5199466;28;20217;-60
2022/06/26 03:13:15;;;;;;;1.30;1.20;;;16.50;99.90;;;;;;5212184;28;20044;-59
2022/06/26 03:15:46;;;;;;;5.15;1.48;;;16.50;99.90;;;;;;5197773;28;20030;-59
2022/06/26 03:18:18;;;;;;;1.00;1.00;;;16.50;99.90;;;;;;5182541;28;20037;-60
2022/06/26 03:20:50;;;;;;;1.15;1.13;;;16.50;99.90;;;;;;5198819;28;20029;-62
2022/06/26 03:24:06;;;;;;;1.10;1.10;;;16.50;99.90;;;;;;5198589;28;20030;-60
2022/06/26 03:26:21;;;;;;;1.17;1.10;;;16.60;99.90;;;;;;5196260;28;20044;-60
2022/06/26 03:28:54;;;;;;;;;;;16.70;99.90;;;;;;5189277;28;20077;-63
2022/06/26 03:31:28;;;;;;;0.88;0.88;;;16.80;99.90;;;;;;5181183;28;19916;-60
2022/06/26 03:34:01;;;;;;;;;;;16.90;99.90;;;;;;5160706;28;20038;-61
2022/06/26 03:36:38;;;;;;;1.20;1.10;;;17.00;99.90;;;;;;5193382;28;19935;-62
2022/06/26 03:39:18;;;;;;;1.45;1.35;;;17.10;99.90;;;;;;5198186;28;20360;-62
2022/06/26 03:42:00;;;;;;;1.00;0.98;;;17.20;99.90;;;;;;5196901;28;20051;-61
2022/06/26 03:44:36;;;;;;;1.05;1.00;;;17.20;99.90;;;;;;5178994;28;20037;-61
2022/06/26 03:47:13;;;;;;;1.20;1.00;;;17.40;99.90;;;;;;5213419;28;20367;-61
2022/06/26 03:49:52;;;;;;;0.90;0.90;;;17.50;99.90;;;;;;5216756;28;20033;-60
2022/06/26 03:52:29;;;;;;;0.95;0.90;;;17.60;99.90;;;;;;5183770;28;20045;-59
2022/06/26 03:55:07;;;;;;;1.33;1.23;;;17.80;99.90;;;;;;5200815;28;20342;-61
2022/06/26 03:57:50;;;;;;;0.80;0.80;;;17.80;99.90;;;;;;5200954;28;20029;-60
2022/06/26 04:00:26;;;;;;;1.55;1.33;;;17.80;99.90;;;;;;5183448;28;20041;-61
2022/06/26 04:02:57;;;;;;;1.02;0.90;;;18.10;99.90;;;;;;5198339;28;20033;-61
2022/06/26 04:05:35;;;;;;;0.98;0.93;;;18.60;99.90;;;;;;5190677;28;20504;-61
2022/06/26 04:08:13;;;;;;;0.85;0.82;;;18.80;99.90;;;;;;5201715;28;20042;-60
2022/06/26 04:10:50;;;;;;;1.00;1.00;;;19.20;99.90;;;;;;5185370;28;20033;-61
2022/06/26 04:13:24;;;;;;;1.85;0.85;;;19.40;99.90;;;;;;5187055;28;20037;-62
2022/06/26 04:15:58;;;;;;;1.15;0.85;;;19.40;99.90;;;;;;5201191;28;20033;-63
2022/06/26 04:18:35;;;;;;;0.60;0.60;;;19.70;99.90;;;;;;5199521;28;20926;-61
2022/06/26 04:21:06;;;;;;;1.10;0.80;;;20.00;99.90;;;;;;5201292;28;20033;-61
2022/06/26 04:23:38;;;;;;;0.80;0.80;;;19.90;99.90;;;;;;5199874;28;20029;-62
2022/06/26 04:26:10;;;;;;;1.00;0.77;;;20.20;99.90;;;;;;5199107;28;20041;-63
2022/06/26 04:28:46;;;;;;;0.90;0.70;;;20.40;99.90;;;;;;5183584;28;20097;-63
2022/06/26 04:31:21;;;;;;;1.20;0.73;;;20.60;99.90;;;;;;5186080;28;20041;-63
2022/06/26 04:33:55;;;;;;;1.17;0.95;;;21.00;99.90;;;;;;5196804;28;20313;-62
2022/06/26 04:36:29;;;;;;;0.85;0.75;;;21.20;99.90;;;;;;5201261;28;20039;-60
2022/06/26 04:39:00;;;;;;;0.85;0.85;;;21.30;99.90;;;;;;5200376;28;20037;-62
2022/06/26 04:41:36;;;;;;;0.70;0.70;;;21.40;99.90;;;;;;5186956;28;20045;-62
2022/06/26 04:44:14;;;;;;;0.80;0.80;;;21.50;99.90;;;;;;5203094;28;20029;-62
2022/06/26 04:46:46;;;;;;;1.23;1.13;;;21.80;99.90;;;;;;5202014;28;20055;-63
2022/06/26 04:49:20;;;;;;;1.17;0.98;;;22.00;99.90;;;;;;5199061;28;20034;-62
2022/06/26 04:51:55;;;;;;;0.80;0.80;;;22.10;99.90;;;;;;5201525;28;20033;-61
2022/06/26 04:54:27;;;;;;;0.70;0.70;;;22.40;99.90;;;;;;5182509;28;20048;-61
2022/06/26 04:57:03;;;;;;;1.00;1.00;;;22.60;99.90;;;;;;5200966;28;20063;-62
2022/06/26 04:59:39;;;;;;;0.70;0.70;;;22.60;99.90;;;;;;5202309;28;20021;-62
2022/06/26 05:02:16;;;;;;;0.88;0.82;;;22.80;99.90;;;;;;5202895;28;20029;-61
2022/06/26 05:04:50;;;;;;;0.82;0.82;;;22.80;99.90;;;;;;5188956;28;20038;-62
2022/06/26 05:07:22;;;;;;;1.20;1.00;;;22.90;99.90;;;;;;5169702;28;20334;-60
2022/06/26 05:09:56;;;;;;;2.00;0.85;;;22.80;99.90;;;;;;5189380;28;20044;-60
2022/06/26 05:12:30;;;;;;;0.77;0.77;;;23.00;99.90;;;;;;5198697;28;20038;-62
2022/06/26 05:15:01;;;;;;;0.57;0.55;;;23.40;99.90;;;;;;5193762;28;20245;-64
2022/06/26 05:17:33;;;;;;;1.85;0.80;;;23.70;99.90;;;;;;5196348;28;20037;-62
2022/06/26 05:20:05;;;;;;;2.55;0.90;;;23.80;99.90;;;;;;5199502;28;20033;-64
2022/06/26 05:22:36;;;;;;;0.80;0.80;;;23.90;99.90;;;;;;5199886;28;20024;-63
2022/06/26 05:25:11;;;;;;;0.80;0.80;;;24.30;99.90;;;;;;5198584;28;20208;-63
2022/06/26 05:27:43;;;;;;;;;;;23.80;99.90;;;;;;5198769;28;20025;-62
2022/06/26 05:30:15;;;;;;;0.82;0.82;;;23.00;99.90;;;;;;5199279;28;19915;-63
2022/06/26 05:32:51;;;;;;;0.95;0.85;;;22.80;99.90;;;;;;5197518;28;20025;-60
2022/06/26 05:35:25;;;;;;;1.63;1.20;;;23.30;99.90;;;;;;5198640;28;20022;-62
2022/06/26 05:37:59;;;;;;;1.63;1.48;;;23.50;99.90;;;;;;5200310;28;20037;-62
2022/06/26 05:40:33;;;;;;;1.02;0.93;;;23.60;99.90;;;;;;5200917;28;20025;-62
2022/06/26 05:43:05;;;;;;;1.02;1.00;;;23.40;99.90;;;;;;5203514;28;20557;-63
2022/06/26 05:45:36;;;;;;;1.15;1.05;;;24.30;99.90;;;;;;5198798;28;20045;-63
2022/06/26 05:48:13;;;;;;;1.20;1.10;;;24.70;99.90;;;;;;5200194;28;20030;-62
2022/06/26 05:50:49;;;;;;;1.05;0.98;;;25.10;99.90;;;;;;5205246;28;20029;-62
2022/06/26 05:53:26;;;;;;;1.27;1.17;;;25.10;99.90;;;;;;5191637;28;20048;-61
2022/06/26 05:55:59;;;;;;;1.30;1.08;;;24.80;99.90;;;;;;5203220;28;20029;-61
2022/06/26 05:58:38;;;;;;;0.80;0.80;;;24.70;99.90;;;;;;5209036;28;20036;-62
2022/06/26 06:01:09;;;;;;;1.23;1.13;;;25.20;99.90;;;;;;5209119;28;20789;-61
2022/06/26 06:03:43;;;;;;;1.02;0.98;;;25.70;99.90;;;;;;5212841;28;20044;-61
2022/06/26 06:06:18;;;;;;;1.23;1.13;;;25.60;99.90;;;;;;5201598;28;20045;-60
2022/06/26 06:08:55;;;;;;;1.20;1.10;;;26.10;99.90;;;;;;5196663;28;20044;-62
2022/06/26 06:11:26;;;;;;;1.27;1.17;;;26.60;99.90;;;;;;5211156;28;20053;-61
2022/06/26 06:14:07;;;;;;;1.10;1.00;;;26.80;99.90;;;;;;5215324;28;20234;-63
2022/06/26 06:16:42;;;;;;;1.30;1.20;;;26.50;99.90;;;;;;5195751;28;20029;-63
2022/06/26 06:19:16;;;;;;;2.15;1.45;;;26.70;99.90;;;;;;5230596;28;20033;-62
2022/06/26 06:21:48;;;;;;;1.67;1.58;;;27.10;99.90;;;;;;5215447;28;20044;-62
2022/06/26 06:24:22;;;;;;;1.00;0.90;;;27.40;99.90;;;;;;5183081;28;20041;-63
2022/06/26 06:26:53;;;;;;;2.42;1.05;;;28.00;99.90;;;;;;5210626;28;20032;-62
2022/06/26 06:29:25;;;;;;;2.55;1.30;;;28.00;99.90;;;;;;5212804;28;20235;-63
2022/06/26 06:31:56;;;;;;;1.80;0.90;;;28.40;99.90;;;;;;5209139;28;20279;-61
2022/06/26 06:34:30;;;;;;;3.03;1.50;;;28.30;99.90;;;;;;5212773;28;20226;-62
2022/06/26 06:37:04;;;;;;;1.70;1.23;;;28.20;99.90;;;;;;5205179;28;20052;-62
2022/06/26 06:39:40;;;;;;;1.45;1.35;;;28.20;99.90;;;;;;5184518;28;20425;-62
2022/06/26 06:42:15;;;;;;;1.48;1.30;;;29.00;99.90;;;;;;5193052;28;20056;-63
2022/06/26 06:44:46;;;;;;;3.30;1.70;;;29.50;99.90;;;;;;5185592;28;20053;-61
2022/06/26 06:47:19;;;;;;;3.47;1.40;;;29.50;99.90;;;;;;5202090;28;20052;-61
2022/06/26 06:49:51;;;;;;;2.22;1.52;;;29.30;99.90;;;;;;5214901;28;20048;-62
2022/06/26 06:52:26;;;;;;;2.05;1.40;;;29.80;99.90;;;;;;5197000;28;20042;-61
2022/06/26 06:55:04;;;;;;;3.13;1.67;;;29.40;99.90;;;;;;5206653;28;20037;-62
2022/06/26 06:57:37;;;;;;;1.98;1.27;;;29.60;99.90;;;;;;5214383;28;20302;-62
2022/06/26 07:00:12;;;;;;;4.47;1.48;;;30.70;99.90;;;;;;5191545;28;20047;-62
2022/06/26 07:02:46;;;;;;;1.95;1.40;;;30.40;99.90;;;;;;5206054;28;20040;-61
2022/06/26 07:05:23;;;;;;;1.90;1.50;;;30.80;99.90;;;;;;5199333;28;20093;-62
2022/06/26 07:07:54;;;;;;;1.70;1.42;;;30.60;99.90;;;;;;5197178;28;20331;-62
2022/06/26 07:10:31;;;;;;;1.55;1.45;;;30.80;99.90;;;;;;5232438;28;20037;-61
2022/06/26 07:13:10;;;;;;;1.35;1.25;;;31.30;99.90;;;;;;5208141;28;20204;-62
2022/06/26 07:15:44;;;;;;;2.88;1.52;;;31.30;99.90;;;;;;5198183;28;20049;-62
2022/06/26 07:18:15;;;;;;;3.33;1.77;;;30.90;99.90;;;;;;5215570;28;20337;-62
2022/06/26 07:20:47;;;;;;;1.98;1.50;;;31.20;99.90;;;;;;5195155;28;20038;-62
2022/06/26 07:23:18;;;;;;;1.38;1.27;;;30.90;99.90;;;;;;5217473;28;20211;-60
2022/06/26 07:25:58;;;;;;;2.00;1.33;;;30.80;99.90;;;;;;5194240;28;20044;-63
2022/06/26 07:28:29;;;;;;;2.00;1.60;;;31.10;99.90;;;;;;5218785;28;20033;-60
2022/06/26 07:31:01;;;;;;;1.45;1.25;;;31.90;99.90;;;;;;5189810;28;20044;-61
2022/06/26 07:36:22;;;;;;;1.73;1.58;;;31.80;99.90;;;;;;5206597;28;20964;-62
2022/06/26 07:38:55;;;;;;;1.88;1.42;;;31.90;99.90;;;;;;5221353;28;20030;-62
2022/06/26 07:41:26;;;;;;;1.23;1.10;;;32.20;99.90;;;;;;5213765;28;20025;-60
2022/06/26 07:44:00;;;;;;;2.20;1.27;;;32.20;99.90;;;;;;5203149;28;20037;-61
2022/06/26 07:46:34;;;;;;;;;;;32.10;99.90;;;;;;5213634;28;20101;-60
2022/06/26 07:49:12;;;;;;;2.00;1.30;;;31.60;99.90;;;;;;5218777;28;19909;-61
2022/06/26 07:51:51;;;;;;;1.50;1.10;;;31.70;99.90;;;;;;5216836;28;20037;-61
2022/06/26 07:54:25;;;;;;;1.40;1.27;;;32.30;99.90;;;;;;5216278;28;20032;-61
2022/06/26 07:56:57;;;;;;;3.10;1.05;;;33.10;99.90;;;;;;5197465;28;20041;-61
2022/06/26 07:59:31;;;;;;;2.25;1.52;;;33.60;99.90;;;;;;5213131;28;20033;-62
2022/06/26 08:02:03;;;;;;;1.73;1.00;;;33.70;99.90;;;;;;5212222;28;20041;-62
2022/06/26 08:04:34;;;;;;;1.63;1.30;;;33.30;99.90;;;;;;5201268;28;20049;-63
2022/06/26 08:07:08;;;;;;;1.48;1.35;;;33.50;99.90;;;;;;5202819;28;20035;-61
2022/06/26 08:09:39;;;;;;;;;;;33.40;99.90;;;;;;5217608;28;20040;-61
2022/06/26 08:12:12;;;;;;;1.42;1.20;;;33.50;99.90;;;;;;5213874;28;19909;-62
2022/06/26 08:14:51;;;;;;;2.47;1.50;;;33.90;99.90;;;;;;5234204;28;20045;-61
2022/06/26 08:17:22;;;;;;;1.95;1.42;;;34.00;99.90;;;;;;5179144;28;20318;-62
2022/06/26 08:19:54;;;;;;;1.60;1.30;;;34.20;99.90;;;;;;5215524;28;20045;-62
2022/06/26 08:22:25;;;;;;;1.85;1.40;;;34.40;99.90;;;;;;5216714;28;20044;-61
2022/06/26 08:24:57;;;;;;;2.42;1.48;;;34.30;99.90;;;;;;5219853;28;20037;-62
2022/06/26 08:27:28;;;;;;;1.67;1.40;;;34.20;99.90;;;;;;5212200;28;20041;-62
2022/06/26 08:30:00;;;;;;;1.90;1.52;;;34.60;99.90;;;;;;5217312;28;20048;-62
2022/06/26 08:32:36;;;;;;;1.40;1.30;;;34.40;99.90;;;;;;5212926;28;20032;-61
2022/06/26 08:35:10;;;;;;;2.08;1.75;;;34.20;99.90;;;;;;5193228;28;20309;-62
2022/06/26 08:37:41;;;;;;;;;;;33.70;99.90;;;;;;5219680;28;20041;-61
2022/06/26 08:40:16;;;;;;;1.70;1.58;;;33.30;99.90;;;;;;5218668;28;20095;-62
2022/06/26 08:42:54;;;;;;;3.22;1.60;;;32.80;99.90;;;;;;5214670;28;20034;-62
2022/06/26 08:45:27;;;;;;;1.73;1.63;;;32.90;99.90;;;;;;5221083;28;20052;-61
2022/06/26 08:48:02;;;;;;;2.13;1.70;;;33.10;99.90;;;;;;5237748;28;20021;-62
2022/06/26 08:50:34;;;;;;;2.50;2.00;;;31.60;99.90;;;;;;5231430;28;20329;-60
2022/06/26 08:53:06;;;;;;;1.65;1.50;;;31.10;99.90;;;;;;5236519;28;20314;-61
2022/06/26 08:55:38;;;;;;;2.42;2.10;;;30.80;99.90;;;;;;5234921;28;20310;-61
2022/06/26 08:58:12;;;;;;;2.00;1.80;;;30.50;99.90;;;;;;5239828;28;20040;-62
2022/06/26 09:00:46;;;;;;;1.85;1.70;;;31.40;99.90;;;;;;5219944;28;20225;-62
2022/06/26 09:03:18;;;;;;;2.30;1.50;;;31.10;99.90;;;;;;5213568;28;20042;-61
2022/06/26 09:05:49;;;;;;;1.17;1.08;;;31.60;99.90;;;;;;5201319;28;20350;-62
2022/06/26 09:08:26;;;;;;;2.42;1.80;;;32.70;99.90;;;;;;5219078;28;20028;-62
2022/06/26 09:11:07;;;;;;;2.00;1.80;;;33.70;99.90;;;;;;5215940;28;20226;-61
2022/06/26 09:13:44;;;;;;;2.80;2.03;;;34.00;99.90;;;;;;5220691;28;20306;-62
2022/06/26 09:16:15;;;;;;;1.65;1.55;;;34.30;99.90;;;;;;5193679;28;20206;-61
2022/06/26 09:18:52;;;;;;;1.73;1.63;;;34.00;99.90;;;;;;5200556;28;20034;-62
2022/06/26 09:21:26;;;;;;;3.65;1.73;;;33.20;99.90;;;;;;5202471;28;20035;-61
2022/06/26 09:23:58;;;;;;;1.70;1.60;;;33.70;99.90;;;;;;5189758;28;20029;-60
2022/06/26 09:26:29;;;;;;;1.70;1.60;;;33.00;99.90;;;;;;5197915;28;20037;-62
2022/06/26 09:29:22;;;;;;;1.83;1.70;;;33.00;99.90;;;;;;5198858;28;20048;-61
2022/06/26 09:31:56;;;;;;;2.17;1.70;;;33.80;99.90;;;;;;5182987;28;20022;-62
2022/06/26 09:34:28;;;;;;;;;;;33.50;99.90;;;;;;5199623;28;20029;-63
2022/06/26 09:37:06;;;;;;;2.10;1.90;;;34.10;99.90;;;;;;5197700;28;19909;-63
2022/06/26 09:39:39;;;;;;;2.47;1.67;;;34.20;99.90;;;;;;5212267;28;20130;-62
2022/06/26 09:42:19;;;;;;;2.10;1.45;;;34.50;99.90;;;;;;5185199;28;20067;-61
2022/06/26 09:44:52;;;;;;;2.40;2.17;;;34.60;99.90;;;;;;5184789;28;20032;-61
2022/06/26 09:47:30;;;;;;;2.30;1.95;;;34.50;99.90;;;;;;5197431;28;20033;-64
2022/06/26 09:50:07;;;;;;;1.70;1.60;;;33.30;99.90;;;;;;5200824;28;20337;-62
2022/06/26 09:52:39;;;;;;;2.38;1.63;;;34.30;99.90;;;;;;5208283;28;20344;-61
2022/06/26 09:55:14;;;;;;;1.80;1.70;;;35.10;99.90;;;;;;5181463;28;20047;-62
2022/06/26 09:57:50;;;;;;;1.73;1.55;;;35.20;99.90;;;;;;5199487;28;20037;-64
2022/06/26 10:00:22;;;;;;;2.33;1.58;;;35.30;99.90;;;;;;5199933;28;20040;-62
2022/06/26 10:08:41;;;;;;;1.92;1.70;;;35.50;99.90;;;;;;5213557;28;20041;-62
2022/06/26 10:11:15;;;;;;;2.67;2.00;;;35.90;99.90;;;;;;5204644;28;20038;-64
2022/06/26 10:13:46;;;;;;;2.35;2.15;;;35.30;99.90;;;;;;5215921;28;20036;-62
2022/06/26 10:16:38;;;;;;;1.95;1.75;;;35.40;99.90;;;;;;5217881;28;20036;-62
2022/06/26 10:19:37;;;;;;;2.15;1.52;;;35.70;99.90;;;;;;5207701;28;20036;-62
2022/06/26 10:22:16;;;;;;;1.70;1.60;;;36.60;99.90;;;;;;5205978;28;20054;-62
2022/06/26 10:24:55;;;;;;;2.03;1.88;;;36.40;99.90;;;;;;5205995;28;20314;-63
2022/06/26 10:27:33;;;;;;;1.90;1.80;;;36.90;99.90;;;;;;5199869;28;20043;-61
2022/06/26 10:30:19;;;;;;;2.38;2.17;;;36.80;99.90;;;;;;5180954;28;20037;-62
2022/06/26 10:33:13;;;;;;;1.60;1.50;;;35.00;99.90;;;;;;5190131;28;20047;-63
2022/06/26 10:35:51;;;;;;;2.30;2.10;;;34.20;99.90;;;;;;5200410;28;20370;-62
2022/06/26 10:38:31;;;;;;;1.95;1.85;;;33.60;99.90;;;;;;5206121;28;20039;-62
2022/06/26 10:44:13;;;;;;;1.85;1.60;;;36.90;99.90;;;;;;5202731;28;20037;-64
2022/06/26 10:46:49;;;;;;;2.15;1.95;;;37.10;99.90;;;;;;5205236;28;20136;-61
2022/06/26 10:49:26;;;;;;;1.50;1.40;;;37.20;99.90;;;;;;5187733;28;20024;-63
2022/06/26 10:51:59;;;;;;;1.75;1.65;;;37.20;99.90;;;;;;5191609;28;20387;-62
2022/06/26 10:54:36;;;;;;;1.90;1.75;;;38.10;99.90;;;;;;5205590;28;20032;-63
2022/06/26 10:57:18;;;;;;;1.67;1.58;;;37.80;99.90;;;;;;5197382;28;20178;-62
2022/06/26 10:59:54;;;;;;;1.67;1.58;;;37.80;99.90;;;;;;5200033;28;20035;-61
2022/06/26 11:02:26;;;;;;;1.85;1.75;;;39.20;99.90;;;;;;5181066;28;20226;-64
2022/06/26 11:05:01;;;;;;;1.70;1.60;;;39.30;99.90;;;;;;5188782;28;20045;-65
2022/06/26 11:07:51;;;;;;;1.67;1.58;;;40.80;99.90;;;;;;5201166;28;20025;-62
2022/06/26 11:10:27;;;;;;;2.28;1.50;;;43.20;99.90;;;;;;5210863;28;20039;-63
2022/06/26 11:13:03;;;;;;;2.20;1.92;;;43.90;99.90;;;;;;5201077;28;20041;-62
2022/06/26 11:15:37;;;;;;;3.75;1.88;;;43.00;99.90;;;;;;5198112;28;20195;-63
2022/06/26 11:18:09;;;;;;;1.90;1.80;;;40.90;99.90;;;;;;5199930;28;20017;-62
2022/06/26 11:20:52;;;;;;;1.90;1.75;;;38.30;99.90;;;;;;5183022;28;20241;-61
2022/06/26 11:23:32;;;;;;;1.90;1.80;;;38.30;99.90;;;;;;5182365;28;20316;-63
2022/06/26 11:26:08;;;;;;;1.70;1.60;;;40.30;99.90;;;;;;5181070;28;20025;-63
2022/06/26 11:29:03;;;;;;;2.75;1.85;;;41.50;99.90;;;;;;5200517;28;20025;-63
2022/06/26 11:31:38;;;;;;;2.75;1.60;;;42.10;99.90;;;;;;5192009;28;20250;-62
2022/06/26 11:34:15;;;;;;;2.22;1.70;;;40.90;99.90;;;;;;5174504;28;20052;-61
2022/06/26 11:36:55;;;;;;;2.35;2.15;;;40.30;99.90;;;;;;5199760;28;20140;-61
2022/06/26 11:39:40;;;;;;;1.80;1.70;;;40.80;99.90;;;;;;5179286;28;20042;-61
2022/06/26 11:42:18;;;;;;;1.92;1.83;;;40.20;99.90;;;;;;5196100;28;20283;-62
2022/06/26 11:44:53;;;;;;;1.50;1.40;;;40.80;99.90;;;;;;5183021;28;20025;-61
2022/06/26 11:47:30;;;;;;;2.03;1.92;;;41.90;99.90;;;;;;5199160;28;20048;-62
2022/06/26 11:50:07;;;;;;;1.83;1.73;;;43.20;99.90;;;;;;5197330;28;20338;-64
2022/06/26 11:52:42;;;;;;;1.95;1.73;;;44.00;99.80;;;;;;5195329;28;20025;-61
2022/06/26 11:55:17;;;;;;;1.80;1.70;;;44.70;98.90;;;;;;5192793;28;20034;-62
2022/06/26 11:57:49;;;;;;;1.85;1.75;;;44.50;98.40;;;;;;5197777;28;20615;-61
2022/06/26 12:00:21;;;;;;;1.90;1.80;;;45.00;97.10;;;;;;5196375;28;20238;-63
2022/06/26 12:02:53;;;;;;;1.92;1.83;;;44.00;97.20;;;;;;5194958;28;20033;-61
2022/06/26 12:05:35;;;;;;;2.47;1.90;;;40.40;98.70;;;;;;5156311;28;20053;-62
2022/06/26 12:08:18;;;;;;;2.03;1.85;;;41.20;99.20;;;;;;5193988;28;20249;-62
2022/06/26 12:10:56;;;;;;;3.10;1.73;;;41.80;99.20;;;;;;5199343;28;20033;-61
2022/06/26 12:13:35;;;;;;;1.90;1.80;;;41.10;99.40;;;;;;5217572;28;20445;-61
2022/06/26 12:16:10;;;;;;;1.92;1.83;;;39.90;99.90;;;;;;5201884;28;20025;-61
2022/06/26 12:18:42;;;;;;;1.70;1.60;;;38.50;99.90;;;;;;5183272;28;20313;-60
2022/06/26 12:21:21;;;;;;;1.52;1.42;;;38.10;99.90;;;;;;5199512;28;20037;-62
2022/06/26 12:23:56;;;;;;;1.70;1.60;;;39.40;99.90;;;;;;5201621;28;20051;-63
2022/06/26 12:26:38;;;;;;;1.63;1.52;;;41.80;99.50;;;;;;5197156;28;20336;-61
2022/06/26 12:29:20;;;;;;;1.77;1.67;;;43.00;98.70;;;;;;5199977;28;20214;-63
2022/06/26 12:31:57;;;;;;;1.70;1.60;;;43.60;98.10;;;;;;5202732;28;20021;-62
2022/06/26 12:34:29;;;;;;;1.73;1.63;;;43.00;96.60;;;;;;5200189;28;20079;-63
2022/06/26 12:37:03;;;;;;;1.98;1.88;;;43.20;97.40;;;;;;5198284;28;20140;-61
2022/06/26 12:39:39;;;;;;;2.17;1.50;;;44.80;96.40;;;;;;5198893;28;20027;-63
2022/06/26 12:42:16;;;;;;;2.22;1.70;;;45.70;95.30;;;;;;5201054;28;20028;-63
2022/06/26 12:45:02;;;;;;;1.73;1.63;;;45.50;94.90;;;;;;5201376;28;20318;-61
2022/06/26 12:47:37;;;;;;;2.10;1.80;;;45.70;94.60;;;;;;5200307;28;20333;-62
2022/06/26 12:50:14;;;;;;;2.13;1.90;;;46.80;93.70;;;;;;5202102;28;20249;-62
2022/06/26 12:52:48;;;;;;;1.90;1.75;;;46.30;92.80;;;;;;5180669;28;20033;-62
2022/06/26 12:55:20;;;;;;;3.03;1.55;;;45.00;93.90;;;;;;5201520;28;20029;-62
2022/06/26 12:57:51;;;;;;;1.90;1.80;;;45.30;94.00;;;;;;5199265;28;20041;-61
2022/06/26 13:00:30;;;;;;;2.17;2.08;;;45.30;93.70;;;;;;5191493;28;20030;-62
2022/06/26 13:03:01;;;;;;;1.70;1.60;;;46.10;93.10;;;;;;5201135;28;20048;-64
2022/06/26 13:05:38;;;;;;;1.50;1.40;;;45.90;92.40;;;;;;5190011;28;20061;-62
2022/06/26 13:08:15;;;;;;;1.50;1.40;;;45.30;93.00;;;;;;5167719;28;20132;-63
2022/06/26 13:10:47;;;;;;;1.58;1.48;;;45.50;92.40;;;;;;5190471;28;20025;-61
2022/06/26 13:13:23;;;;;;;1.95;1.85;;;45.80;91.60;;;;;;5195724;28;20051;-63
2022/06/26 13:15:57;;;;;;;1.67;1.58;;;45.50;91.90;;;;;;5184553;28;20033;-60
2022/06/26 13:18:28;;;;;;;2.33;1.70;;;42.60;92.50;;;;;;5201488;28;20045;-61
2022/06/26 13:21:03;;;;;;;1.73;1.63;;;40.30;93.80;;;;;;5203452;28;20076;-62
2022/06/26 13:23:38;;;;;;;2.30;2.10;;;38.60;95.30;;;;;;5191220;28;20033;-63
2022/06/26 13:26:16;;;;;;;1.48;1.38;;;37.30;96.30;;;;;;5197254;28;20227;-61
2022/06/26 13:28:48;;;;;;;2.60;1.85;;;36.50;97.20;;;;;;5181718;28;20314;-63
2022/06/26 13:31:27;;;;;;;1.48;1.38;;;38.40;96.40;;;;;;5181328;28;20048;-62
2022/06/26 13:34:02;;;;;;;1.50;1.40;;;40.90;94.80;;;;;;5195016;28;20386;-62
2022/06/26 13:36:38;;;;;;;1.60;1.30;;;41.70;93.80;;;;;;5200689;28;20210;-63
2022/06/26 13:39:12;;;;;;;1.65;1.42;;;41.40;94.00;;;;;;5198995;28;20230;-64
2022/06/26 13:41:46;;;;;;;2.20;1.50;;;42.70;93.30;;;;;;5179213;28;20200;-63
2022/06/26 13:44:24;;;;;;;3.22;1.63;;;44.00;92.50;;;;;;5200065;28;20326;-62
2022/06/26 13:46:56;;;;;;;2.00;1.50;;;44.10;92.10;;;;;;5210019;28;20047;-62